createdAt,value
2018-11-11T00:00:25.282Z,9.60
2018-11-11T00:02:54.677Z,9.60
2018-11-11T00:05:23.383Z,9.50
2018-11-11T00:07:51.771Z,9.60
2018-11-11T00:10:20.143Z,9.60
2018-11-11T00:12:48.546Z,9.60
2018-11-11T00:15:18.078Z,9.60
2018-11-11T00:17:47.614Z,9.70
2018-11-11T00:20:16.423Z,9.70
2018-11-11T00:22:44.810Z,9.70
2018-11-11T00:25:13.203Z,9.70
2018-11-11T00:27:41.991Z,9.70
2018-11-11T00:30:15.246Z,9.70
2018-11-11T00:32:43.634Z,9.70
2018-11-11T00:35:12.383Z,9.70
2018-11-11T00:37:41.410Z,9.70
2018-11-11T00:40:11.614Z,9.70
2018-11-11T00:42:40.582Z,9.70
2018-11-11T00:45:09.991Z,9.70
2018-11-11T00:47:38.875Z,9.70
2018-11-11T00:50:08.728Z,9.60
2018-11-11T00:52:37.203Z,9.60
2018-11-11T00:55:07.738Z,9.50
2018-11-11T00:57:36.114Z,9.50
2018-11-11T01:00:05.934Z,9.40
2018-11-11T01:02:34.881Z,9.40
2018-11-11T01:05:03.628Z,9.40
2018-11-11T01:07:32.278Z,9.30
2018-11-11T01:10:00.618Z,9.30
2018-11-11T01:12:29.624Z,9.30
2018-11-11T01:14:57.999Z,9.20
2018-11-11T01:17:26.674Z,9.20
2018-11-11T01:19:55.096Z,9.20
2018-11-11T01:22:23.483Z,9.20
2018-11-11T01:24:52.103Z,9.30
2018-11-11T01:27:20.738Z,9.30
2018-11-11T01:29:49.610Z,9.30
2018-11-11T01:32:18.235Z,9.30
2018-11-11T01:34:46.587Z,9.30
2018-11-11T01:37:15.690Z,9.40
2018-11-11T01:39:44.664Z,9.40
2018-11-11T01:42:13.547Z,9.40
2018-11-11T01:44:41.926Z,9.40
2018-11-11T01:47:10.607Z,9.40
2018-11-11T01:49:39.000Z,9.40
2018-11-11T01:52:07.903Z,9.50
2018-11-11T01:54:37.278Z,9.50
2018-11-11T01:57:05.714Z,9.50
2018-11-11T01:59:34.381Z,9.60
2018-11-11T02:02:03.135Z,9.60
2018-11-11T02:04:31.497Z,9.60
2018-11-11T02:06:59.889Z,9.60
2018-11-11T02:09:28.271Z,9.60
2018-11-11T02:11:56.959Z,9.60
2018-11-11T02:14:27.278Z,9.70
2018-11-11T02:16:57.561Z,9.70
2018-11-11T02:19:26.531Z,9.70
2018-11-11T02:21:55.235Z,9.70
2018-11-11T02:24:23.872Z,9.80
2018-11-11T02:26:52.318Z,10.00
2018-11-11T02:29:21.238Z,10.00
2018-11-11T02:31:50.842Z,10.10
2018-11-11T02:34:19.479Z,10.00
2018-11-11T02:36:48.635Z,10.10
2018-11-11T02:39:17.182Z,10.10
2018-11-11T02:41:45.575Z,10.10
2018-11-11T02:44:14.003Z,10.10
2018-11-11T02:46:43.372Z,10.10
2018-11-11T02:49:11.843Z,10.10
2018-11-11T02:51:40.665Z,10.20
2018-11-11T02:54:09.435Z,10.30
2018-11-11T02:56:38.011Z,10.50
2018-11-11T02:59:06.880Z,10.40
2018-11-11T03:01:35.586Z,10.30
2018-11-11T03:04:04.786Z,10.30
2018-11-11T03:06:33.874Z,10.20
2018-11-11T03:09:02.811Z,10.30
2018-11-11T03:11:31.261Z,10.30
2018-11-11T03:13:59.874Z,10.10
2018-11-11T03:16:28.651Z,10.10
2018-11-11T03:18:57.600Z,10.20
2018-11-11T03:21:26.441Z,10.30
2018-11-11T03:23:54.907Z,10.40
2018-11-11T03:26:23.687Z,10.30
2018-11-11T03:28:52.474Z,10.30
2018-11-11T03:31:20.879Z,10.40
2018-11-11T03:33:49.287Z,10.40
2018-11-11T03:36:17.658Z,10.40
2018-11-11T03:38:46.387Z,10.30
2018-11-11T03:41:14.882Z,10.30
2018-11-11T03:43:43.398Z,10.30
2018-11-11T03:46:13.115Z,10.30
2018-11-11T03:48:41.578Z,10.30
2018-11-11T03:51:10.275Z,10.40
2018-11-11T03:53:39.158Z,10.30
2018-11-11T03:56:07.542Z,10.20
2018-11-11T03:58:36.002Z,10.10
2018-11-11T04:01:04.927Z,10.10
2018-11-11T04:03:33.335Z,10.10
2018-11-11T04:06:02.022Z,10.00
2018-11-11T04:08:30.551Z,10.00
2018-11-11T04:10:58.907Z,9.90
2018-11-11T04:13:27.299Z,10.00
2018-11-11T04:15:56.119Z,10.10
2018-11-11T04:18:24.782Z,10.00
2018-11-11T04:20:53.155Z,9.80
2018-11-11T04:23:22.106Z,9.80
2018-11-11T04:25:50.787Z,9.80
2018-11-11T04:28:19.151Z,9.80
2018-11-11T04:30:47.792Z,9.90
2018-11-11T04:33:16.480Z,9.90
2018-11-11T04:35:45.527Z,9.80
2018-11-11T04:38:14.402Z,9.80
2018-11-11T04:40:42.831Z,9.70
2018-11-11T04:43:11.187Z,9.60
2018-11-11T04:45:39.879Z,9.50
2018-11-11T04:48:08.255Z,9.50
2018-11-11T04:50:36.644Z,9.70
2018-11-11T04:53:05.319Z,9.80
2018-11-11T04:55:33.667Z,9.80
2018-11-11T04:58:02.039Z,9.80
2018-11-11T05:00:30.658Z,9.60
2018-11-11T05:02:59.327Z,9.50
2018-11-11T05:05:27.723Z,9.40
2018-11-11T05:07:56.331Z,9.40
2018-11-11T05:10:24.975Z,9.50
2018-11-11T05:12:53.384Z,9.70
2018-11-11T05:15:21.882Z,9.80
2018-11-11T05:17:50.827Z,9.80
2018-11-11T05:20:19.188Z,9.70
2018-11-11T05:22:47.811Z,9.60
2018-11-11T05:25:16.399Z,9.70
2018-11-11T05:27:45.194Z,9.80
2018-11-11T05:30:17.171Z,10.30
2018-11-11T05:32:45.550Z,10.10
2018-11-11T05:35:13.967Z,10.10
2018-11-11T05:37:43.207Z,10.00
2018-11-11T05:40:13.198Z,10.10
2018-11-11T05:42:42.339Z,10.00
2018-11-11T05:45:12.260Z,9.90
2018-11-11T05:47:41.512Z,9.80
2018-11-11T05:50:11.763Z,9.80
2018-11-11T05:52:40.445Z,9.80
2018-11-11T05:55:09.377Z,10.10
2018-11-11T05:57:37.759Z,10.10
2018-11-11T06:00:08.534Z,10.10
2018-11-11T06:02:37.204Z,10.00
2018-11-11T06:05:07.550Z,10.30
2018-11-11T06:07:36.171Z,10.30
2018-11-11T06:10:06.263Z,10.20
2018-11-11T06:12:35.400Z,10.10
2018-11-11T06:15:04.047Z,10.00
2018-11-11T06:17:33.042Z,10.10
2018-11-11T06:20:01.435Z,10.20
2018-11-11T06:22:29.861Z,10.20
2018-11-11T06:24:58.315Z,10.30
2018-11-11T06:27:27.888Z,10.30
2018-11-11T06:29:56.266Z,10.30
2018-11-11T06:32:25.016Z,10.20
2018-11-11T06:34:54.454Z,10.20
2018-11-11T06:37:22.835Z,10.20
2018-11-11T06:39:51.219Z,10.20
2018-11-11T06:42:19.739Z,10.20
2018-11-11T06:44:48.555Z,10.20
2018-11-11T06:47:17.230Z,10.20
2018-11-11T06:49:45.826Z,10.20
2018-11-11T06:52:15.779Z,10.20
2018-11-11T06:54:44.164Z,10.20
2018-11-11T06:57:12.514Z,10.20
2018-11-11T06:59:41.229Z,10.20
2018-11-11T07:02:10.171Z,10.20
2018-11-11T07:04:38.538Z,10.00
2018-11-11T07:07:07.159Z,10.00
2018-11-11T07:09:37.332Z,9.90
2018-11-11T07:12:07.282Z,10.00
2018-11-11T07:14:35.711Z,9.90
2018-11-11T07:17:04.590Z,9.90
2018-11-11T07:19:32.980Z,9.90
2018-11-11T07:22:02.827Z,9.90
2018-11-11T07:24:31.214Z,9.90
2018-11-11T07:27:00.296Z,9.90
2018-11-11T07:29:28.899Z,10.00
2018-11-11T07:31:57.588Z,10.00
2018-11-11T07:34:25.967Z,10.00
2018-11-11T07:36:55.045Z,10.00
2018-11-11T07:39:23.534Z,10.10
2018-11-11T07:41:52.247Z,10.10
2018-11-11T07:44:20.932Z,10.20
2018-11-11T07:46:50.194Z,10.20
2018-11-11T07:49:19.082Z,10.20
2018-11-11T07:51:47.750Z,10.20
2018-11-11T07:54:16.659Z,10.30
2018-11-11T07:56:45.011Z,10.30
2018-11-11T07:59:13.703Z,10.40
2018-11-11T08:01:42.235Z,10.50
2018-11-11T08:04:10.518Z,10.60
2018-11-11T08:06:39.343Z,10.80
2018-11-11T08:09:08.770Z,10.90
2018-11-11T08:11:48.812Z,11.00
2018-11-11T08:14:17.475Z,11.00
2018-11-11T08:16:47.362Z,10.90
2018-11-11T08:19:16.637Z,10.90
2018-11-11T08:21:45.015Z,10.80
2018-11-11T08:24:13.444Z,10.70
2018-11-11T08:26:41.827Z,10.70
2018-11-11T08:29:10.358Z,10.60
2018-11-11T08:31:39.516Z,10.60
2018-11-11T08:34:08.158Z,10.60
2018-11-11T08:36:37.115Z,10.60
2018-11-11T08:39:09.722Z,10.70
2018-11-11T08:41:40.095Z,10.70
2018-11-11T08:44:09.727Z,10.70
2018-11-11T08:46:39.036Z,11.00
2018-11-11T08:49:07.432Z,11.30
2018-11-11T08:51:36.155Z,11.70
2018-11-11T08:54:04.999Z,12.10
2018-11-11T08:56:33.413Z,12.30
2018-11-11T08:59:01.772Z,12.30
2018-11-11T09:01:30.922Z,12.50
2018-11-11T09:03:59.396Z,12.70
2018-11-11T09:06:27.790Z,12.90
2018-11-11T09:08:56.266Z,13.30
2018-11-11T09:11:24.704Z,13.60
2018-11-11T09:13:53.922Z,13.70
2018-11-11T09:16:24.293Z,13.90
2018-11-11T09:18:52.975Z,14.20
2018-11-11T09:21:21.986Z,14.50
2018-11-11T09:23:50.386Z,14.90
2018-11-11T09:26:18.711Z,14.90
2018-11-11T09:28:47.099Z,14.90
2018-11-11T09:31:15.718Z,14.90
2018-11-11T09:33:44.388Z,15.00
2018-11-11T09:36:12.763Z,14.90
2018-11-11T09:38:41.115Z,14.50
2018-11-11T09:41:10.206Z,14.30
2018-11-11T09:43:38.895Z,14.20
2018-11-11T09:46:07.536Z,14.00
2018-11-11T09:48:36.195Z,14.20
2018-11-11T09:51:04.712Z,14.10
2018-11-11T09:53:33.173Z,14.00
2018-11-11T09:56:02.447Z,13.80
2018-11-11T09:58:31.436Z,13.80
2018-11-11T10:01:00.097Z,14.00
2018-11-11T10:03:37.458Z,13.80
2018-11-11T10:06:23.888Z,13.80
2018-11-11T10:11:02.584Z,13.80
2018-11-11T10:13:50.023Z,13.80
2018-11-11T10:17:23.756Z,13.90
2018-11-11T10:20:02.651Z,14.00
2018-11-11T10:23:08.228Z,14.20
2018-11-11T10:25:44.478Z,14.10
2018-11-11T10:28:24.818Z,14.10
2018-11-11T10:31:00.287Z,14.10
2018-11-11T10:34:03.611Z,14.10
2018-11-11T10:36:37.491Z,14.20
2018-11-11T10:39:15.603Z,14.40
2018-11-11T10:41:49.184Z,14.50
2018-11-11T10:44:37.240Z,14.60
2018-11-11T10:47:08.672Z,14.60
2018-11-11T10:49:40.351Z,14.90
2018-11-11T10:52:09.234Z,14.80
2018-11-11T10:54:37.835Z,14.90
2018-11-11T10:57:06.847Z,15.00
2018-11-11T10:59:35.760Z,15.10
2018-11-11T11:02:09.774Z,15.20
2018-11-11T11:04:44.143Z,15.30
2018-11-11T11:07:14.082Z,15.40
2018-11-11T11:09:43.931Z,15.30
2018-11-11T11:12:12.312Z,15.20
2018-11-11T11:14:40.711Z,15.20
2018-11-11T11:17:09.495Z,15.30
2018-11-11T11:19:38.747Z,15.30
2018-11-11T11:22:07.537Z,15.20
2018-11-11T11:24:36.364Z,15.40
2018-11-11T11:27:06.013Z,15.30
2018-11-11T11:29:34.427Z,15.50
2018-11-11T11:32:03.990Z,15.70
2018-11-11T11:34:33.188Z,15.50
2018-11-11T11:37:01.588Z,15.80
2018-11-11T11:39:29.987Z,15.90
2018-11-11T11:41:58.350Z,16.30
2018-11-11T11:44:27.006Z,17.10
2018-11-11T11:46:55.803Z,17.10
2018-11-11T11:49:24.483Z,17.40
2018-11-11T11:51:52.897Z,16.80
2018-11-11T11:54:21.607Z,17.20
2018-11-11T11:56:49.998Z,17.10
2018-11-11T11:59:18.640Z,17.40
2018-11-11T12:01:47.289Z,17.40
2018-11-11T12:04:15.799Z,17.50
2018-11-11T12:06:44.191Z,16.70
2018-11-11T12:09:13.088Z,16.50
2018-11-11T12:11:41.363Z,17.00
2018-11-11T12:14:09.746Z,16.50
2018-11-11T12:16:38.244Z,17.20
2018-11-11T12:19:07.104Z,17.10
2018-11-11T12:21:35.677Z,17.10
2018-11-11T12:24:04.483Z,16.90
2018-11-11T12:26:33.582Z,16.60
2018-11-11T12:29:01.970Z,16.70
2018-11-11T12:31:30.907Z,16.90
2018-11-11T12:33:59.415Z,17.00
2018-11-11T12:36:28.063Z,17.10
2018-11-11T12:38:56.606Z,17.00
2018-11-11T12:41:25.015Z,16.80
2018-11-11T12:43:53.415Z,16.70
2018-11-11T12:46:22.035Z,16.50
2018-11-11T12:48:50.446Z,16.50
2018-11-11T12:51:18.839Z,16.70
2018-11-11T12:53:47.271Z,16.60
2018-11-11T12:56:16.228Z,16.60
2018-11-11T12:58:45.433Z,16.70
2018-11-11T13:01:14.055Z,16.70
2018-11-11T13:03:42.441Z,16.70
2018-11-11T13:06:10.839Z,16.70
2018-11-11T13:08:39.510Z,16.80
2018-11-11T13:11:08.234Z,16.70
2018-11-11T13:13:36.916Z,16.70
2018-11-11T13:16:06.193Z,16.80
2018-11-11T13:18:34.663Z,16.90
2018-11-11T13:21:04.107Z,16.70
2018-11-11T13:23:32.463Z,16.70
2018-11-11T13:26:00.901Z,16.70
2018-11-11T13:28:29.387Z,16.60
2018-11-11T13:30:57.791Z,16.60
2018-11-11T13:33:26.146Z,16.60
2018-11-11T13:35:54.526Z,16.60
2018-11-11T13:38:23.386Z,16.50
2018-11-11T13:40:52.351Z,16.50
2018-11-11T13:43:20.777Z,16.40
2018-11-11T13:45:49.153Z,16.40
2018-11-11T13:48:17.558Z,16.30
2018-11-11T13:50:45.955Z,16.20
2018-11-11T13:53:14.355Z,15.90
2018-11-11T13:55:42.800Z,15.90
2018-11-11T13:58:11.454Z,15.80
2018-11-11T14:00:40.558Z,15.80
2018-11-11T14:03:09.207Z,15.70
2018-11-11T14:05:37.575Z,15.60
2018-11-11T14:08:06.224Z,15.60
2018-11-11T14:10:34.883Z,15.60
2018-11-11T14:13:03.272Z,15.50
2018-11-11T14:15:31.910Z,15.50
2018-11-11T14:18:00.304Z,15.50
2018-11-11T14:20:28.734Z,15.50
2018-11-11T14:22:57.471Z,15.40
2018-11-11T14:25:29.377Z,15.40
2018-11-11T14:27:59.039Z,15.40
2018-11-11T14:30:28.207Z,15.30
2018-11-11T14:32:57.481Z,15.30
2018-11-11T14:35:26.200Z,15.30
2018-11-11T14:37:54.583Z,15.30
2018-11-11T14:40:25.355Z,15.30
2018-11-11T14:42:53.771Z,15.20
2018-11-11T14:45:23.447Z,15.20
2018-11-11T14:47:53.057Z,15.20
2018-11-11T14:50:22.399Z,15.20
2018-11-11T14:52:50.943Z,15.20
2018-11-11T14:55:24.630Z,15.00
2018-11-11T14:57:52.980Z,15.00
2018-11-11T15:00:36.293Z,15.20
2018-11-11T15:03:08.532Z,15.10
2018-11-11T15:05:37.195Z,15.10
2018-11-11T15:08:05.995Z,15.10
2018-11-11T15:10:34.538Z,15.20
2018-11-11T15:13:02.961Z,15.20
2018-11-11T15:15:31.314Z,15.20
2018-11-11T15:18:00.850Z,15.10
2018-11-11T15:20:29.413Z,15.00
2018-11-11T15:22:58.003Z,15.00
2018-11-11T15:25:27.792Z,14.90
2018-11-11T15:27:56.267Z,14.80
2018-11-11T15:30:25.933Z,14.60
2018-11-11T15:32:55.790Z,14.60
2018-11-11T15:35:24.161Z,14.40
2018-11-11T15:37:52.523Z,14.30
2018-11-11T15:40:22.279Z,14.20
2018-11-11T15:42:50.708Z,14.10
2018-11-11T15:45:22.296Z,14.10
2018-11-11T15:47:51.020Z,14.00
2018-11-11T15:50:20.946Z,13.90
2018-11-11T15:52:51.755Z,13.80
2018-11-11T15:55:21.438Z,13.80
2018-11-11T15:57:50.739Z,13.70
2018-11-11T16:00:20.768Z,13.60
2018-11-11T16:02:49.510Z,13.60
2018-11-11T16:05:18.534Z,13.50
2018-11-11T16:07:47.774Z,13.50
2018-11-11T16:10:17.554Z,13.50
2018-11-11T16:12:46.031Z,13.40
2018-11-11T16:15:18.019Z,13.30
2018-11-11T16:17:47.494Z,13.30
2018-11-11T16:20:17.527Z,13.20
2018-11-11T16:22:47.542Z,13.20
2018-11-11T16:25:15.968Z,13.10
2018-11-11T16:27:45.639Z,13.00
2018-11-11T16:30:16.570Z,13.00
2018-11-11T16:32:45.745Z,13.00
2018-11-11T16:35:15.273Z,13.00
2018-11-11T16:37:44.039Z,13.00
2018-11-11T16:40:17.765Z,12.90
2018-11-11T16:42:46.713Z,12.90
2018-11-11T16:45:17.255Z,12.80
2018-11-11T16:47:45.766Z,12.70
2018-11-11T16:50:17.223Z,12.70
2018-11-11T16:52:46.470Z,12.80
2018-11-11T16:55:16.482Z,12.80
2018-11-11T16:57:50.327Z,12.80
2018-11-11T17:00:20.376Z,12.70
2018-11-11T17:02:49.538Z,12.60
2018-11-11T17:05:20.411Z,12.70
2018-11-11T17:07:49.683Z,12.70
2018-11-11T17:10:23.310Z,12.60
2018-11-11T17:12:53.204Z,12.70
2018-11-11T17:15:23.651Z,12.70
2018-11-11T17:17:52.010Z,12.60
2018-11-11T17:20:21.885Z,12.70
2018-11-11T17:22:51.115Z,12.70
2018-11-11T17:25:20.541Z,12.70
2018-11-11T17:27:49.144Z,12.70
2018-11-11T17:30:20.594Z,12.90
2018-11-11T17:32:50.317Z,12.90
2018-11-11T17:35:19.978Z,12.80
2018-11-11T17:37:48.622Z,12.80
2018-11-11T17:40:21.642Z,12.80
2018-11-11T17:42:50.996Z,12.80
2018-11-11T17:45:19.659Z,12.80
2018-11-11T17:47:48.954Z,12.80
2018-11-11T17:50:20.415Z,12.90
2018-11-11T17:52:49.100Z,12.90
2018-11-11T17:55:18.857Z,13.00
2018-11-11T17:57:47.259Z,13.10
2018-11-11T18:00:18.371Z,13.20
2018-11-11T18:02:47.502Z,13.10
2018-11-11T18:05:17.487Z,13.20
2018-11-11T18:07:46.175Z,13.10
2018-11-11T18:10:15.714Z,13.10
2018-11-11T18:12:44.595Z,13.10
2018-11-11T18:15:14.686Z,13.10
2018-11-11T18:17:43.698Z,13.10
2018-11-11T18:20:14.809Z,13.00
2018-11-11T18:22:43.863Z,13.00
2018-11-11T18:25:12.848Z,13.00
2018-11-11T18:27:41.332Z,13.00
2018-11-11T18:30:12.456Z,13.00
2018-11-11T18:32:40.900Z,13.10
2018-11-11T18:35:11.028Z,13.20
2018-11-11T18:37:40.214Z,13.30
2018-11-11T18:40:10.335Z,13.30
2018-11-11T18:42:39.031Z,13.30
2018-11-11T18:45:10.699Z,13.30
2018-11-11T18:47:39.209Z,13.30
2018-11-11T18:50:10.254Z,13.20
2018-11-11T18:52:39.016Z,13.10
2018-11-11T18:55:08.212Z,13.00
2018-11-11T18:57:37.937Z,13.00
2018-11-11T19:00:09.728Z,13.00
2018-11-11T19:02:38.071Z,13.00
2018-11-11T19:05:08.337Z,13.00
2018-11-11T19:07:37.119Z,13.00
2018-11-11T19:10:07.062Z,13.00
2018-11-11T19:12:35.981Z,13.00
2018-11-11T19:15:04.856Z,13.00
2018-11-11T19:17:33.734Z,12.90
2018-11-11T19:20:02.128Z,12.90
2018-11-11T19:22:30.538Z,13.00
2018-11-11T19:24:59.183Z,13.00
2018-11-11T19:27:27.641Z,12.90
2018-11-11T19:29:56.051Z,12.80
2018-11-11T19:32:24.935Z,12.80
2018-11-11T19:34:53.341Z,12.80
2018-11-11T19:37:22.559Z,12.70
2018-11-11T19:39:51.046Z,12.70
2018-11-11T19:42:19.473Z,12.80
2018-11-11T19:44:48.212Z,12.80
2018-11-11T19:47:16.848Z,12.80
2018-11-11T19:49:45.519Z,12.70
2018-11-11T19:52:13.971Z,12.80
2018-11-11T19:54:42.794Z,12.80
2018-11-11T19:57:11.186Z,12.70
2018-11-11T19:59:39.583Z,12.80
2018-11-11T20:02:08.855Z,12.70
2018-11-11T20:04:37.547Z,12.80
2018-11-11T20:07:06.902Z,12.90
2018-11-11T20:09:35.512Z,12.90
2018-11-11T20:12:03.899Z,12.90
2018-11-11T20:14:32.279Z,12.90
2018-11-11T20:17:01.195Z,12.90
2018-11-11T20:19:29.579Z,13.00
2018-11-11T20:21:58.436Z,13.00
2018-11-11T20:24:26.955Z,13.20
2018-11-11T20:26:55.281Z,13.30
2018-11-11T20:29:24.250Z,13.20
2018-11-11T20:31:52.629Z,13.20
2018-11-11T20:34:21.018Z,13.40
2018-11-11T20:36:50.034Z,13.40
2018-11-11T20:39:19.119Z,13.40
2018-11-11T20:41:47.539Z,13.40
2018-11-11T20:44:15.899Z,13.30
2018-11-11T20:46:44.363Z,13.30
2018-11-11T20:49:13.267Z,13.30
2018-11-11T20:51:41.647Z,13.40
2018-11-11T20:54:10.075Z,13.40
2018-11-11T20:56:38.646Z,13.50
2018-11-11T20:59:07.695Z,13.50
2018-11-11T21:01:36.052Z,13.40
2018-11-11T21:04:05.275Z,13.40
2018-11-11T21:06:33.690Z,13.40
2018-11-11T21:09:02.138Z,13.50
2018-11-11T21:11:30.552Z,13.60
2018-11-11T21:13:59.271Z,13.70
2018-11-11T21:16:27.979Z,13.70
2018-11-11T21:18:56.341Z,13.70
2018-11-11T21:21:24.775Z,13.70
2018-11-11T21:23:53.117Z,13.70
2018-11-11T21:26:21.498Z,13.60
2018-11-11T21:28:49.874Z,13.70
2018-11-11T21:31:18.268Z,13.70
2018-11-11T21:33:46.656Z,13.70
2018-11-11T21:36:15.431Z,13.70
2018-11-11T21:38:44.129Z,13.70
2018-11-11T21:41:12.823Z,13.60
2018-11-11T21:43:41.278Z,13.60
2018-11-11T21:46:09.968Z,13.60
2018-11-11T21:48:38.467Z,13.50
2018-11-11T21:51:07.130Z,13.40
2018-11-11T21:53:37.886Z,13.30
2018-11-11T21:56:06.799Z,13.30
2018-11-11T21:58:35.764Z,13.30
2018-11-11T22:01:04.630Z,13.20
2018-11-11T22:03:33.103Z,13.30
2018-11-11T22:06:01.630Z,13.30
2018-11-11T22:08:29.997Z,13.20
2018-11-11T22:10:58.434Z,13.20
2018-11-11T22:13:26.771Z,13.10
2018-11-11T22:15:55.283Z,13.10
2018-11-11T22:18:24.128Z,12.90
2018-11-11T22:20:52.507Z,12.60
2018-11-11T22:23:21.216Z,12.30
2018-11-11T22:25:49.823Z,12.30
2018-11-11T22:28:18.456Z,12.50
2018-11-11T22:30:46.875Z,12.40
2018-11-11T22:33:15.599Z,12.10
2018-11-11T22:35:43.991Z,11.60
2018-11-11T22:38:12.394Z,11.30
2018-11-11T22:40:41.039Z,11.50
2018-11-11T22:43:09.450Z,11.90
2018-11-11T22:45:37.855Z,12.30
2018-11-11T22:48:06.515Z,12.50
2018-11-11T22:50:34.906Z,12.70
2018-11-11T22:53:03.332Z,12.80
2018-11-11T22:55:31.921Z,12.60
2018-11-11T22:58:00.643Z,12.50
2018-11-11T23:00:30.148Z,12.80
2018-11-11T23:02:58.954Z,13.10
2018-11-11T23:05:28.301Z,13.10
2018-11-11T23:07:56.746Z,13.10
2018-11-11T23:10:25.471Z,12.90
2018-11-11T23:12:54.839Z,12.90
2018-11-11T23:15:23.790Z,13.10
2018-11-11T23:17:52.462Z,13.10
2018-11-11T23:20:21.376Z,13.10
2018-11-11T23:22:49.774Z,13.20
2018-11-11T23:25:18.943Z,13.30
2018-11-11T23:27:47.350Z,13.10
2018-11-11T23:30:17.635Z,13.00
2018-11-11T23:32:46.495Z,12.90
2018-11-11T23:35:15.130Z,12.90
2018-11-11T23:37:44.491Z,12.70
2018-11-11T23:40:14.347Z,12.70
2018-11-11T23:42:43.564Z,13.20
2018-11-11T23:45:12.215Z,13.20
2018-11-11T23:47:40.928Z,13.20
2018-11-11T23:50:12.767Z,13.20
2018-11-11T23:52:41.755Z,13.10
2018-11-11T23:55:11.763Z,13.20
2018-11-11T23:57:40.155Z,13.20
